Latest Coastal Weather Observations for Swan Island

IDT60701

Issued at 8:35 pm EDT Wednesday 22 October 2014 (issued every 10 minutes, with the page automatically refreshed every 10 minutes)

About coastal observations | Map of coastal stations | Coastal observations for TAS | Marine services | Other Formats
Station Details ID: 092123 Name: SWAN ISLAND Lat: -40.73 Lon: 148.12 Height: 15.0 m
Data from the previous 72 hours. | See also: Recent months at Swan Island
Date/Time
EDT
Temp

°C
Wind Pressure Rain
since 9am
mm
Weather Cloud Vis
km
Sea
Height
m
Swell
Dir
 
Speed
knots
Gust
knots
hPa Trend Height
m
Period
s
Dir
22/08:30pm 14.5 N 5 9 1015.2 - 0.0 - - - - - - -
22/08:00pm 14.7 WNW 7 9 1015.6 - 0.0 - - - - - - -
22/07:30pm 14.9 W 10 14 1016.2 - 0.0 - - - - - - -
22/07:00pm 15.1 WNW 8 11 1015.6 - 0.0 - - - - - - -
22/06:30pm 15.7 WNW 8 10 1015.7 - 0.0 - - - - - - -
22/06:00pm 16.6 WNW 8 11 1015.7 - 0.0 - - - - - - -
22/05:30pm 17.4 WNW 7 11 1015.7 - 0.0 - - - - - - -
22/05:00pm 18.0 NW 7 10 1015.8 - 0.0 - - - - - - -
22/04:30pm 18.2 NW 6 10 1016.0 - 0.0 - - - - - - -
22/04:00pm 17.7 NW 6 9 1015.9 - 0.0 - - - - - - -
22/03:30pm 19.0 WNW 7 10 1016.5 - 0.0 - - - - - - -
22/03:00pm 18.6 NW 5 7 1016.7 - 0.0 - - - - - - -
22/02:30pm 18.9 NNW 4 5 1017.0 - 0.0 - - - - - - -
22/02:00pm 18.8 NNW 5 6 1017.6 - 0.0 - - - - - - -
22/01:30pm 20.1 NW 5 7 1018.0 - 0.0 - - - - - - -
22/01:00pm 20.0 W 6 9 1018.6 - 0.0 - - - - - - -
22/12:30pm 20.6 W 7 10 1019.0 - 0.0 - - - - - - -
22/12:00pm 19.2 NW 6 8 1019.6 - 0.0 - - - - - - -
22/11:30am 18.6 NNW 4 5 1020.1 - 0.0 - - - - - - -
22/11:00am 18.4 N 6 8 1020.5 - 0.0 - - - - - - -
22/10:30am 17.5 NE 8 9 1020.8 - 0.0 - - - - - - -
22/10:00am 16.8 NE 9 11 1021.1 - 0.0 - - - - - - -
22/09:30am 16.7 ENE 7 9 1021.5 - 0.0 - - - - - - -
22/09:00am 16.1 ENE 8 10 1021.5 - 0.0 - - - - - - -
22/08:30am 15.8 ENE 8 10 1021.9 - 0.0 - - - - - - -
22/08:00am 15.3 ENE 9 10 1022.1 - 0.0 - - - - - - -
22/07:30am 14.4 ENE 10 12 1022.3 - 0.0 - - - - - - -
22/07:00am 14.0 ENE 10 11 1022.6 - 0.0 - - - - - - -
22/06:30am 13.9 ENE 10 12 1023.0 - 0.0 - - - - - - -
22/06:00am 13.8 ENE 10 11 1023.2 - 0.0 - - - - - - -
22/05:30am 13.9 ENE 9 12 1023.3 - 0.0 - - - - - - -
22/05:00am 14.1 ENE 9 11 1023.5 - 0.0 - - - - - - -
22/04:30am 14.2 NE 10 16 1023.9 - 0.0 - - - - - - -
22/04:00am 14.2 NE 11 15 1024.4 - 0.0 - - - - - - -
22/03:30am 14.2 NE 13 17 1024.9 - 0.0 - - - - - - -
22/03:00am 14.1 NE 10 14 1025.4 - 0.0 - - - - - - -
22/02:30am 14.0 NE 7 12 1026.0 - 0.0 - - - - - - -
22/02:00am 13.8 NNE 12 17 1026.2 - 0.0 - - - - - - -
22/01:30am 14.0 NE 12 15 1026.5 - 0.0 - - - - - - -
22/01:00am 13.9 NE 11 14 1027.2 - 0.0 - - - - - - -
22/12:30am 14.1 NE 13 16 1027.8 - 0.0 - - - - - - -
22/12:00am 14.0 NE 13 16 1028.3 - 0.0 - - - - - - -
 
Date/Time
EDT
Temp

°C
Wind Pressure Rain
since 9am
mm
Weather Cloud Vis
km
Sea
Height
m
Swell
Dir
 
Speed
knots
Gust
knots
hPa Trend Height
m
Period
s
Dir
21/11:30pm 14.0 NE 10 13 1028.7 - 0.0 - - - - - - -
21/11:00pm 14.0 NE 11 13 1029.1 - 0.0 - - - - - - -
21/10:30pm 14.1 NE 12 16 1029.3 - 0.0 - - - - - - -
21/10:00pm 14.0 ENE 11 14 1029.4 - 0.0 - - - - - - -
21/09:30pm 13.9 ENE 12 13 1029.6 - 0.0 - - - - - - -
21/09:00pm 13.9 ENE 14 17 1029.3 - 0.0 - - - - - - -
21/08:30pm 13.8 ENE 12 16 1029.6 - 0.0 - - - - - - -
21/08:00pm 13.5 ENE 13 16 1029.9 - 0.0 - - - - - - -
21/07:30pm 13.7 NE 12 15 1029.8 - 0.0 - - - - - - -
21/07:00pm 13.9 ENE 11 13 1029.7 - 0.0 - - - - - - -
21/06:30pm 13.9 ENE 11 13 1029.8 - 0.0 - - - - - - -
21/06:00pm 14.2 ENE 12 15 1029.9 - 0.0 - - - - - - -
21/05:30pm 14.5 ENE 13 15 1030.1 - 0.0 - - - - - - -
21/05:00pm 14.6 ENE 14 17 1030.1 - 0.0 - - - - - - -
21/04:30pm 14.9 NE 14 17 1030.5 - 0.0 - - - - - - -
21/04:00pm 15.0 NE 14 17 1030.6 - 0.0 - - - - - - -
21/03:30pm 15.7 ENE 11 14 1031.1 - 0.0 - - - - - - -
21/03:00pm 17.3 ESE 8 10 1031.5 - 0.0 - - - - - - -
21/02:30pm 17.3 ESE 10 12 1031.8 - 0.0 - - - - - - -
21/02:00pm 16.5 E 12 14 1032.2 - 0.0 - - - - - - -
21/01:30pm 16.3 E 11 14 1032.5 - 0.0 - - - - - - -
21/01:00pm 16.4 E 10 12 1032.9 - 0.0 - - - - - - -
21/12:30pm 15.8 E 9 11 1033.0 - 0.0 - - - - - - -
21/12:00pm 15.4 E 9 11 1033.4 - 0.0 - - - - - - -
21/11:30am 15.0 ENE 10 11 1033.7 - 0.0 - - - - - - -
21/11:00am 14.8 ENE 10 11 1034.1 - 0.0 - - - - - - -
21/10:30am 14.4 E 8 10 1034.4 - 0.0 - - - - - - -
21/10:00am 14.0 E 9 11 1034.3 - 0.0 - - - - - - -
21/09:30am 13.8 ENE 9 11 1034.4 - 0.0 - - - - - - -
21/09:00am 13.3 E 8 11 1034.3 - 0.0 - - - - - - -
21/08:30am 13.3 ENE 9 12 1033.9 - 0.0 - - - - - - -
21/08:00am 12.9 ENE 10 12 1033.9 - 0.0 - - - - - - -
21/07:30am 12.6 ENE 12 16 1033.4 - 0.0 - - - - - - -
21/07:00am 12.4 ENE 10 14 1033.2 - 0.0 - - - - - - -
21/06:30am 12.3 ENE 11 16 1033.1 - 0.0 - - - - - - -
21/06:00am 12.2 ENE 11 15 1032.9 - 0.0 - - - - - - -
21/05:30am 12.4 NE 12 14 1032.7 - 0.0 - - - - - - -
21/05:00am 12.4 ENE 12 15 1032.7 - 0.0 - - - - - - -
21/04:30am 12.1 ESE 11 14 1032.7 - 0.0 - - - - - - -
21/04:00am 11.9 ESE 12 14 1032.8 - 0.0 - - - - - - -
21/03:30am 11.9 E 12 15 1033.1 - 0.0 - - - - - - -
21/03:00am 12.1 E 12 16 1033.2 - 0.0 - - - - - - -
21/02:30am 12.1 E 9 11 1033.7 - 0.0 - - - - - - -
21/02:00am 12.1 E 10 12 1033.8 - 0.0 - - - - - - -
21/01:30am 12.1 E 11 14 1033.9 - 0.0 - - - - - - -
21/01:00am 12.1 E 10 14 1034.3 - 0.0 - - - - - - -
21/12:30am 12.1 E 11 15 1034.7 - 0.0 - - - - - - -
21/12:00am 12.1 E 9 11 1034.8 - 0.0 - - - - - - -
 
Date/Time
EDT
Temp

°C
Wind Pressure Rain
since 9am
mm
Weather Cloud Vis
km
Sea
Height
m
Swell
Dir
 
Speed
knots
Gust
knots
hPa Trend Height
m
Period
s
Dir
20/11:30pm 12.0 E 10 12 1035.1 - 0.0 - - - - - - -
20/11:00pm 12.1 E 11 14 1035.1 - 0.0 - - - - - - -
20/10:30pm 12.0 E 12 15 1035.0 - 0.0 - - - - - - -
20/10:00pm 12.1 E 12 15 1035.0 - 0.0 - - - - - - -
20/09:30pm 12.1 E 11 13 1035.1 - 0.0 - - - - - - -
20/09:00pm 12.0 E 10 13 1035.1 - 0.0 - - - - - - -
20/08:30pm 12.0 E 11 14 1034.5 - 0.0 - - - - - - -
20/08:00pm 11.8 E 11 13 1034.1 - 0.0 - - - - - - -
20/07:30pm 11.7 E 12 14 1034.0 - 0.0 - - - - - - -
20/07:00pm 11.9 ESE 12 16 1033.7 - 0.0 - - - - - - -
20/06:30pm 11.9 ESE 12 15 1033.5 - 0.0 - - - - - - -
20/06:00pm 12.5 ESE 11 14 1033.4 - 0.0 - - - - - - -
20/05:30pm 12.7 ESE 13 17 1033.3 - 0.0 - - - - - - -
20/05:00pm 13.0 E 13 16 1033.3 - 0.0 - - - - - - -
20/04:30pm 13.3 ESE 13 16 1033.2 - 0.0 - - - - - - -
20/04:00pm 13.7 ESE 13 16 1033.2 - 0.0 - - - - - - -
20/03:30pm 13.1 ESE 13 16 1033.4 - 0.0 - - - - - - -
20/03:00pm 13.2 ESE 13 16 1033.5 - 0.0 - - - - - - -
20/02:30pm 12.9 ESE 12 16 1033.7 - 0.0 - - - - - - -
20/02:00pm 13.0 ESE 12 15 1033.9 - 0.0 - - - - - - -
20/01:30pm 13.1 SE 12 16 1034.0 - 0.0 - - - - - - -
20/01:00pm 13.1 SE 12 16 1034.0 - 0.0 - - - - - - -
20/12:30pm 13.0 SE 13 17 1034.2 - 0.0 - - - - - - -
20/12:00pm 12.9 SE 13 18 1034.2 - 0.0 - - - - - - -
20/11:30am 12.7 SE 14 19 1034.1 - 0.0 - - - - - - -
20/11:00am 12.7 SE 14 20 1034.1 - 0.0 - - - - - - -
20/10:30am 12.4 SE 14 18 1033.9 - 0.0 - - - - - - -
20/10:00am 11.9 SE 15 20 1033.6 - 0.0 - - - - - - -
20/09:30am 11.1 SSE 14 19 1033.4 - 0.0 - - - - - - -
20/09:00am 10.2 SSE 12 17 1032.8 - 3.0 - - - - - - -
20/08:30am 9.6 SSE 13 15 1032.4 - 3.0 - - - - - - -
20/08:00am 8.9 S 11 16 1032.4 - 3.0 - - - - - - -
20/07:30am 8.3 S 9 12 1032.3 - 3.0 - - - - - - -
20/07:00am 7.7 S 6 10 1032.0 - 3.0 - - - - - - -
20/06:30am 7.3 S 7 11 1031.4 - 3.0 - - - - - - -
20/06:00am 7.4 S 8 11 1030.7 - 3.0 - - - - - - -
20/05:30am 7.4 S 8 11 1030.0 - 3.0 - - - - - - -
20/05:00am 7.2 S 6 8 1030.0 - 3.0 - - - - - - -
20/04:30am 7.9 S 7 10 1029.5 - 3.0 - - - - - - -
20/04:00am 7.8 S 7 11 1029.0 - 3.0 - - - - - - -
20/03:30am 8.7 S 12 16 1028.6 - 3.0 - - - - - - -
20/03:00am 8.6 S 12 16 1028.2 - 3.0 - - - - - - -
20/02:30am 8.8 S 14 21 1027.8 - 3.0 - - - - - - -
20/02:00am 8.8 S 18 26 1027.1 - 3.0 - - - - - - -
20/01:30am 9.3 S 14 18 1026.6 - 3.0 - - - - - - -
20/01:00am 9.8 SSE 12 16 1026.5 - 3.0 - - - - - - -
20/12:30am 10.2 SSE 9 13 1025.7 - 3.0 - - - - - - -
20/12:00am 10.5 SSE 8 12 1025.2 - 3.0 Recent precip. - - - - - -
 
Date/Time
EDT
Temp

°C
Wind Pressure Rain
since 9am
mm
Weather Cloud Vis
km
Sea
Height
m
Swell
Dir
 
Speed
knots
Gust
knots
hPa Trend Height
m
Period
s
Dir
19/11:30pm 11.3 S 7 10 1024.6 - 3.0 - - - - - - -
19/11:00pm 11.6 S 6 10 1023.6 - 2.8 - - - - - - -
19/10:30pm 11.8 ESE 11 13 1022.4 - 1.0 - - - - - - -
19/10:00pm 12.0 SE 12 15 1022.2 - 0.4 - - - - - - -
19/09:30pm 11.9 ESE 17 22 1021.0 - 0.4 - - - - - - -
19/09:00pm 12.8 ESE 11 15 1020.8 - 0.0 - - - - - - -

Other Formats:

Comma delimited format used in spreadsheet applications
http://www.bom.gov.au/fwo/IDT60701/IDT60701.95985.axf

JavaScript Object Notation format (JSON) in row-major order
http://www.bom.gov.au/fwo/IDT60701/IDT60701.95985.json